createdAt,value
2019-03-04T00:01:32.974Z,2.73
2019-03-04T00:04:02.206Z,2.50
2019-03-04T00:06:31.726Z,2.80
2019-03-04T00:09:01.244Z,2.73
2019-03-04T00:11:30.849Z,2.77
2019-03-04T00:14:00.039Z,2.37
2019-03-04T00:16:29.277Z,2.50
2019-03-04T00:18:58.484Z,2.53
2019-03-04T00:21:28.049Z,2.87
2019-03-04T00:23:57.279Z,2.60
2019-03-04T00:26:26.826Z,2.60
2019-03-04T00:28:56.303Z,2.50
2019-03-04T00:31:25.521Z,2.20
2019-03-04T00:33:54.718Z,2.57
2019-03-04T00:36:23.986Z,2.57
2019-03-04T00:38:53.564Z,2.40
2019-03-04T00:41:23.058Z,1.83
2019-03-04T00:43:52.282Z,2.00
2019-03-04T00:46:21.521Z,1.97
2019-03-04T00:48:50.785Z,1.90
2019-03-04T00:51:20.374Z,2.17
2019-03-04T00:53:49.911Z,2.03
2019-03-04T00:56:19.170Z,2.30
2019-03-04T00:58:48.645Z,2.00
2019-03-04T01:01:38.633Z,2.03
2019-03-04T01:04:07.846Z,1.30
2019-03-04T01:06:37.130Z,1.93
2019-03-04T01:15:02.119Z,1.67
2019-03-04T01:17:31.339Z,1.73
2019-03-04T01:20:00.573Z,2.10
2019-03-04T01:22:30.143Z,1.73
2019-03-04T01:24:59.813Z,1.40
2019-03-04T01:27:29.090Z,1.83
2019-03-04T01:29:58.349Z,1.67
2019-03-04T01:32:30.248Z,1.50
2019-03-04T01:34:59.495Z,1.40
2019-03-04T01:37:28.743Z,1.10
2019-03-04T01:39:58.554Z,1.20
2019-03-04T01:45:42.603Z,0.83
2019-03-04T01:48:12.120Z,0.70
2019-03-04T01:50:41.305Z,1.07
2019-03-04T01:53:10.582Z,1.17
2019-03-04T01:55:39.792Z,1.07
2019-03-04T01:58:08.888Z,1.13
2019-03-04T02:00:38.136Z,1.00
2019-03-04T02:03:07.650Z,0.97
2019-03-04T02:05:57.365Z,0.90
2019-03-04T02:08:26.966Z,1.07
2019-03-04T02:10:56.613Z,1.20
2019-03-04T02:16:14.011Z,0.97
2019-03-04T02:18:43.229Z,1.30
2019-03-04T02:21:12.429Z,1.50
2019-03-04T02:24:21.399Z,1.10
2019-03-04T02:26:50.611Z,1.33
2019-03-04T02:29:20.124Z,1.67
2019-03-04T02:31:49.358Z,1.47
2019-03-04T02:34:18.628Z,1.60
2019-03-04T02:36:47.819Z,1.73
2019-03-04T02:39:17.365Z,1.27
2019-03-04T02:41:46.669Z,1.53
2019-03-04T02:44:15.937Z,1.50
2019-03-04T02:49:33.407Z,1.40
2019-03-04T02:52:02.638Z,1.93
2019-03-04T02:54:31.904Z,1.60
2019-03-04T02:57:01.115Z,1.77
2019-03-04T02:59:30.376Z,1.70
2019-03-04T03:01:59.607Z,1.67
2019-03-04T03:04:28.840Z,2.10
2019-03-04T03:06:58.063Z,1.93
2019-03-04T03:09:27.635Z,2.43
2019-03-04T03:11:56.888Z,2.10
2019-03-04T03:14:26.441Z,2.20
2019-03-04T03:16:55.731Z,2.20
2019-03-04T03:19:25.034Z,1.53
2019-03-04T03:21:54.229Z,2.13
2019-03-04T03:24:23.448Z,1.93
2019-03-04T03:26:54.895Z,1.70
2019-03-04T03:29:24.116Z,2.10
2019-03-04T03:31:53.337Z,1.73
2019-03-04T03:34:22.561Z,2.13
2019-03-04T03:36:51.815Z,2.03
2019-03-04T03:39:20.998Z,1.83
2019-03-04T03:41:50.222Z,2.07
2019-03-04T03:44:19.421Z,2.27
2019-03-04T03:46:48.649Z,1.80
2019-03-04T03:49:17.840Z,2.23
2019-03-04T03:51:47.110Z,1.73
2019-03-04T03:54:16.398Z,1.90
2019-03-04T03:56:45.609Z,1.63
2019-03-04T03:59:14.839Z,1.90
2019-03-04T04:01:44.069Z,2.10
2019-03-04T04:04:13.259Z,1.37
2019-03-04T04:06:42.489Z,2.00
2019-03-04T04:09:11.733Z,1.60
2019-03-04T04:11:41.205Z,1.20
2019-03-04T04:14:10.432Z,1.87
2019-03-04T04:16:39.674Z,1.40
2019-03-04T04:19:09.139Z,1.20
2019-03-04T04:21:38.825Z,1.20
2019-03-04T04:24:08.002Z,0.90
2019-03-04T04:26:37.236Z,1.57
2019-03-04T04:29:11.585Z,1.60
2019-03-04T04:34:17.026Z,1.60
2019-03-04T04:36:46.288Z,1.53
2019-03-04T04:39:15.498Z,1.83
2019-03-04T04:41:44.708Z,1.43
2019-03-04T04:44:13.906Z,1.40
2019-03-04T04:47:25.762Z,1.87
2019-03-04T04:49:54.996Z,1.63
2019-03-04T04:52:24.267Z,1.70
2019-03-04T04:54:53.454Z,1.80
2019-03-04T04:57:22.924Z,1.90
2019-03-04T04:59:52.132Z,2.20
2019-03-04T05:02:21.624Z,1.97
2019-03-04T05:04:50.838Z,1.87
2019-03-04T05:07:20.072Z,1.50
2019-03-04T05:09:49.396Z,2.30
2019-03-04T05:12:18.607Z,2.30
2019-03-04T05:14:47.804Z,1.90
2019-03-04T05:17:17.032Z,2.50
2019-03-04T05:19:46.519Z,1.80
2019-03-04T05:22:15.730Z,1.60
2019-03-04T05:24:44.981Z,1.80
2019-03-04T05:27:14.196Z,1.73
2019-03-04T05:29:43.430Z,2.00
2019-03-04T05:32:12.626Z,2.10
2019-03-04T05:34:41.858Z,1.67
2019-03-04T05:37:11.095Z,1.63
2019-03-04T05:39:40.301Z,1.43
2019-03-04T05:42:09.789Z,1.47
2019-03-04T05:44:39.021Z,1.50
2019-03-04T05:47:08.238Z,1.80
2019-03-04T05:49:37.833Z,1.97
2019-03-04T05:52:07.064Z,1.63
2019-03-04T05:54:36.282Z,1.23
2019-03-04T05:57:05.578Z,1.67
2019-03-04T05:59:35.117Z,1.70
2019-03-04T06:02:23.678Z,1.47
2019-03-04T06:04:52.942Z,1.43
2019-03-04T06:07:41.119Z,1.43
2019-03-04T06:10:30.799Z,1.37
2019-03-04T06:13:00.431Z,1.50
2019-03-04T06:15:30.427Z,1.60
2019-03-04T06:17:59.969Z,1.87
2019-03-04T06:20:29.404Z,1.60
2019-03-04T06:22:59.128Z,1.93
2019-03-04T06:30:45.100Z,2.37
2019-03-04T06:33:14.332Z,2.50
2019-03-04T06:35:43.604Z,2.10
2019-03-04T06:38:12.917Z,1.70
2019-03-04T06:40:42.465Z,1.37
2019-03-04T06:43:11.679Z,1.00
2019-03-04T06:45:40.934Z,1.07
2019-03-04T06:48:10.129Z,0.93
2019-03-04T06:50:58.436Z,0.70
2019-03-04T06:54:05.765Z,1.07
2019-03-04T06:56:59.377Z,0.93
2019-03-04T06:59:38.373Z,0.50
2019-03-04T07:02:11.290Z,0.63
2019-03-04T07:05:04.290Z,0.70
2019-03-04T07:07:34.587Z,0.93
2019-03-04T07:10:04.279Z,1.00
2019-03-04T07:12:33.524Z,1.40
2019-03-04T07:17:37.200Z,1.10
2019-03-04T07:20:10.427Z,1.10
2019-03-04T07:23:00.250Z,0.90
2019-03-04T07:25:30.274Z,2.10
2019-03-04T07:27:59.591Z,2.60
2019-03-04T07:30:28.896Z,1.67
2019-03-04T07:32:58.735Z,1.10
2019-03-04T07:41:21.123Z,0.90
2019-03-04T07:44:09.404Z,1.13
2019-03-04T07:46:39.056Z,0.80
2019-03-04T07:49:08.355Z,0.80
2019-03-04T07:51:37.832Z,1.87
2019-03-04T07:54:07.109Z,0.57
2019-03-04T07:56:36.700Z,0.83
2019-03-04T07:59:12.892Z,1.00
2019-03-04T08:01:42.596Z,0.73
2019-03-04T08:04:11.878Z,1.50
2019-03-04T08:06:41.199Z,1.43
2019-03-04T08:09:48.566Z,1.60
2019-03-04T08:12:55.877Z,1.00
2019-03-04T08:15:26.453Z,1.03
2019-03-04T08:20:55.899Z,1.23
2019-03-04T08:23:25.493Z,1.77
2019-03-04T08:25:54.713Z,1.80
2019-03-04T08:28:24.018Z,1.47
2019-03-04T08:30:53.238Z,1.63
2019-03-04T08:33:22.507Z,4.70
2019-03-04T08:35:51.726Z,3.13
2019-03-04T08:38:20.981Z,1.17
2019-03-04T08:40:50.205Z,1.90
2019-03-04T08:43:19.626Z,1.67
2019-03-04T08:45:49.688Z,1.67
2019-03-04T08:48:19.205Z,1.60
2019-03-04T08:50:48.865Z,1.67
2019-03-04T08:53:18.150Z,1.57
2019-03-04T08:55:47.396Z,0.70
2019-03-04T08:58:18.956Z,1.30
2019-03-04T09:00:48.301Z,1.47
2019-03-04T09:03:17.573Z,1.00
2019-03-04T09:05:46.893Z,1.07
2019-03-04T09:08:16.479Z,0.93
2019-03-04T09:10:46.696Z,1.27
2019-03-04T09:13:15.994Z,1.40
2019-03-04T09:15:45.623Z,1.50
2019-03-04T09:18:15.019Z,0.73
2019-03-04T09:20:44.871Z,1.07
2019-03-04T09:23:14.641Z,1.60
2019-03-04T09:25:47.194Z,0.93
2019-03-04T09:28:16.747Z,1.20
2019-03-04T09:30:45.990Z,2.53
2019-03-04T09:33:15.580Z,2.20
2019-03-04T09:38:55.314Z,2.37
2019-03-04T09:41:24.687Z,2.83
2019-03-04T09:43:54.371Z,2.10
2019-03-04T09:46:23.831Z,1.67
2019-03-04T09:48:53.691Z,2.40
2019-03-04T09:51:24.623Z,2.43
2019-03-04T09:53:54.485Z,1.53
2019-03-04T09:56:26.220Z,2.20
2019-03-04T09:58:55.462Z,2.10
2019-03-04T10:01:48.799Z,2.50
2019-03-04T10:04:56.488Z,1.70
2019-03-04T10:08:03.794Z,1.70
2019-03-04T10:14:19.012Z,1.57
2019-03-04T10:17:26.288Z,2.07
2019-03-04T10:20:33.865Z,2.10
2019-03-04T10:23:41.247Z,2.53
2019-03-04T10:26:48.518Z,1.73
2019-03-04T10:29:55.922Z,1.40
2019-03-04T10:32:51.083Z,1.67
2019-03-04T10:35:58.370Z,2.00
2019-03-04T10:39:05.968Z,1.50
2019-03-04T10:41:58.649Z,1.87
2019-03-04T10:45:05.942Z,1.97
2019-03-04T10:47:35.219Z,1.90
2019-03-04T10:53:00.191Z,1.63
2019-03-04T10:55:29.924Z,2.50
2019-03-04T10:57:59.120Z,1.73
2019-03-04T11:00:28.396Z,1.87
2019-03-04T11:02:57.652Z,1.30
2019-03-04T11:05:27.029Z,2.10
2019-03-04T11:07:56.617Z,1.57
2019-03-04T11:10:26.156Z,1.97
2019-03-04T11:12:55.711Z,1.77
2019-03-04T11:15:25.650Z,1.30
2019-03-04T11:17:54.862Z,1.53
2019-03-04T11:20:24.416Z,1.67
2019-03-04T11:22:53.951Z,1.27
2019-03-04T11:25:23.696Z,1.10
2019-03-04T11:27:53.887Z,1.20
2019-03-04T11:33:18.699Z,1.40
2019-03-04T11:35:48.186Z,1.00
2019-03-04T11:38:59.414Z,1.43
2019-03-04T11:44:23.653Z,1.10
2019-03-04T11:46:52.899Z,0.93
2019-03-04T11:49:22.123Z,0.90
2019-03-04T11:51:51.425Z,0.70
2019-03-04T11:54:21.016Z,0.50
2019-03-04T11:56:50.527Z,0.97
2019-03-04T11:59:20.680Z,0.87
2019-03-04T12:01:50.135Z,1.30
2019-03-04T12:04:19.670Z,0.70
2019-03-04T12:07:28.293Z,0.70
2019-03-04T12:09:58.002Z,1.87
2019-03-04T12:12:27.648Z,1.20
2019-03-04T12:14:57.014Z,0.70
2019-03-04T12:17:26.579Z,0.60
2019-03-04T12:19:56.083Z,0.73
2019-03-04T12:22:28.028Z,0.73
2019-03-04T12:25:13.917Z,0.60
2019-03-04T12:27:43.380Z,0.80
2019-03-04T12:30:20.943Z,0.40
2019-03-04T12:33:11.423Z,0.20
2019-03-04T12:36:05.288Z,0.30
2019-03-04T12:38:34.773Z,0.67
2019-03-04T12:41:04.343Z,0.63
2019-03-04T12:43:55.389Z,0.20
2019-03-04T12:46:28.402Z,0.53
2019-03-04T12:48:57.722Z,0.77
2019-03-04T12:51:44.975Z,1.47
2019-03-04T12:54:28.535Z,1.50
2019-03-04T13:05:09.038Z,1.57
2019-03-04T13:07:38.839Z,1.50
2019-03-04T13:12:56.557Z,1.50
2019-03-04T13:15:26.180Z,1.43
2019-03-04T13:17:55.431Z,1.10
2019-03-04T13:20:25.522Z,0.70
2019-03-04T13:22:54.744Z,1.10
2019-03-04T13:25:24.320Z,1.20
2019-03-04T13:27:53.751Z,1.13
2019-03-04T13:30:43.798Z,1.60
2019-03-04T13:33:13.421Z,1.37
2019-03-04T13:35:42.633Z,1.00
2019-03-04T13:38:11.867Z,1.67
2019-03-04T13:40:41.104Z,1.83
2019-03-04T13:43:10.312Z,1.70
2019-03-04T13:45:39.656Z,1.20
2019-03-04T13:48:09.154Z,1.60
2019-03-04T13:50:39.007Z,0.80
2019-03-04T13:53:08.603Z,1.07
2019-03-04T13:58:12.912Z,1.73
2019-03-04T14:00:42.463Z,2.23
2019-03-04T14:03:12.807Z,7.57
2019-03-04T14:05:42.374Z,8.45
2019-03-04T14:08:11.597Z,7.80
2019-03-04T14:10:40.837Z,2.77
2019-03-04T14:13:30.405Z,1.80
2019-03-04T14:15:59.972Z,1.23
2019-03-04T14:18:29.395Z,1.30
2019-03-04T14:20:58.627Z,1.00
2019-03-04T14:23:27.892Z,1.70
2019-03-04T14:25:57.539Z,1.60
2019-03-04T14:28:28.374Z,2.23
2019-03-04T14:30:57.667Z,1.60
2019-03-04T14:33:26.956Z,1.97
2019-03-04T14:35:56.240Z,1.90
2019-03-04T14:38:25.491Z,2.17
2019-03-04T14:41:13.848Z,2.00
2019-03-04T14:43:43.082Z,1.77
2019-03-04T14:46:56.742Z,2.33
2019-03-04T14:49:25.999Z,2.17
2019-03-04T14:51:55.326Z,2.97
2019-03-04T14:54:24.568Z,2.73
2019-03-04T14:56:53.894Z,2.67
2019-03-04T14:59:23.442Z,2.70
2019-03-04T15:01:52.742Z,3.57
2019-03-04T15:04:21.975Z,5.87
2019-03-04T15:06:51.601Z,3.40
2019-03-04T15:09:20.934Z,3.53
2019-03-04T15:11:50.232Z,2.77
2019-03-04T15:14:20.234Z,3.60
2019-03-04T15:16:49.494Z,3.27
2019-03-04T15:19:19.068Z,2.70
2019-03-04T15:21:49.247Z,2.73
2019-03-04T15:24:38.468Z,1.97
2019-03-04T15:27:07.981Z,2.63
2019-03-04T15:33:25.252Z,1.80
2019-03-04T15:35:54.842Z,1.67
2019-03-04T15:38:24.104Z,1.77
2019-03-04T15:40:53.361Z,2.00
2019-03-04T15:43:26.940Z,1.47
2019-03-04T15:45:56.801Z,0.97
2019-03-04T15:48:28.574Z,1.83
2019-03-04T15:50:58.270Z,1.30
2019-03-04T15:53:27.565Z,1.73
2019-03-04T15:55:57.062Z,1.10
2019-03-04T15:58:26.426Z,1.87
2019-03-04T16:00:56.013Z,1.47
2019-03-04T16:03:25.330Z,1.60
2019-03-04T16:05:54.911Z,1.83
2019-03-04T16:08:24.189Z,1.10
2019-03-04T16:10:53.382Z,1.23
2019-03-04T16:13:22.772Z,0.93
2019-03-04T16:15:51.975Z,1.53
2019-03-04T16:18:21.302Z,1.53
2019-03-04T16:20:50.544Z,1.63
2019-03-04T16:23:20.282Z,1.90
2019-03-04T16:25:49.820Z,1.97
2019-03-04T16:28:21.426Z,2.00
2019-03-04T16:30:51.408Z,1.67
2019-03-04T16:33:20.678Z,0.97
2019-03-04T16:35:52.293Z,1.63
2019-03-04T16:38:40.622Z,1.83
2019-03-04T16:41:09.833Z,2.03
2019-03-04T16:43:39.153Z,2.17
2019-03-04T16:46:08.386Z,2.03
2019-03-04T16:48:37.922Z,1.67
2019-03-04T16:51:07.447Z,1.97
2019-03-04T16:53:36.787Z,2.50
2019-03-04T16:56:06.073Z,2.20
2019-03-04T16:58:35.470Z,2.00
2019-03-04T17:01:04.978Z,1.80
2019-03-04T17:03:34.993Z,2.60
2019-03-04T17:06:05.038Z,2.07
2019-03-04T17:08:38.478Z,1.97
2019-03-04T17:11:07.734Z,2.30
2019-03-04T17:13:37.022Z,2.03
2019-03-04T17:16:06.240Z,1.77
2019-03-04T17:18:35.493Z,2.80
2019-03-04T17:21:04.700Z,3.07
2019-03-04T17:23:34.051Z,2.10
2019-03-04T17:26:03.696Z,2.50
2019-03-04T17:28:32.970Z,3.43
2019-03-04T17:31:02.743Z,3.07
2019-03-04T17:33:32.035Z,1.93
2019-03-04T17:52:00.099Z,2.20
2019-03-04T17:54:30.345Z,2.97
2019-03-04T17:56:59.832Z,1.37
2019-03-04T17:59:29.578Z,2.07
2019-03-04T18:02:01.584Z,2.50
2019-03-04T18:07:07.418Z,2.10
2019-03-04T18:09:38.019Z,2.27
2019-03-04T18:12:35.828Z,1.67
2019-03-04T18:15:14.482Z,1.90
2019-03-04T18:23:29.328Z,1.60
2019-03-04T18:26:36.648Z,1.47
2019-03-04T18:32:38.960Z,1.23
2019-03-04T18:35:46.529Z,2.60
2019-03-04T18:38:56.272Z,1.90
2019-03-04T18:42:03.565Z,2.30
2019-03-04T18:48:09.326Z,2.83
2019-03-04T18:50:38.575Z,2.90
2019-03-04T18:53:08.562Z,2.03
2019-03-04T18:55:50.141Z,2.73
2019-03-04T18:58:19.846Z,1.60
2019-03-04T19:00:49.501Z,2.00
2019-03-04T19:03:18.692Z,2.07
2019-03-04T19:05:48.970Z,1.77
2019-03-04T19:08:18.228Z,2.53
2019-03-04T19:11:10.536Z,4.33
2019-03-04T19:16:28.283Z,3.00
2019-03-04T19:18:58.893Z,2.87
2019-03-04T19:21:28.522Z,2.70
2019-03-04T19:24:16.818Z,2.03
2019-03-04T19:26:46.106Z,1.93
2019-03-04T19:29:15.443Z,3.07
2019-03-04T19:31:45.025Z,2.27
2019-03-04T19:34:14.879Z,2.53
2019-03-04T19:58:45.656Z,2.40
2019-03-04T20:01:15.498Z,2.53
2019-03-04T20:03:44.927Z,2.60
2019-03-04T20:06:14.194Z,2.80
2019-03-04T20:08:43.531Z,2.30
2019-03-04T20:11:12.909Z,2.57
2019-03-04T20:13:42.477Z,1.77
2019-03-04T20:16:12.451Z,2.23
2019-03-04T20:18:41.782Z,1.73
2019-03-04T20:21:11.410Z,2.13
2019-03-04T20:23:40.936Z,2.07
2019-03-04T20:26:10.149Z,2.30
2019-03-04T20:28:39.376Z,2.43
2019-03-04T20:31:29.428Z,2.30
2019-03-04T20:33:58.934Z,2.00
2019-03-04T20:36:28.243Z,2.20
2019-03-04T20:38:58.188Z,2.20
2019-03-04T20:41:27.422Z,2.03
2019-03-04T20:43:56.690Z,1.97
2019-03-04T20:46:25.933Z,1.50
2019-03-04T20:48:55.224Z,1.60
2019-03-04T20:51:24.690Z,1.33
2019-03-04T20:53:54.066Z,1.83
2019-03-04T20:56:23.547Z,1.67
2019-03-04T20:58:53.141Z,1.63
2019-03-04T21:04:12.346Z,1.73
2019-03-04T21:06:41.640Z,1.40
2019-03-04T21:09:50.587Z,0.93
2019-03-04T21:12:19.887Z,1.27
2019-03-04T21:14:49.241Z,1.20
2019-03-04T21:17:18.457Z,0.90
2019-03-04T21:19:47.704Z,1.17
2019-03-04T21:22:16.977Z,1.07
2019-03-04T21:24:46.218Z,1.30
2019-03-04T21:27:15.458Z,1.37
2019-03-04T21:30:22.778Z,1.00
2019-03-04T21:33:01.477Z,0.90
2019-03-04T21:36:08.780Z,1.47
2019-03-04T21:38:37.992Z,1.27
2019-03-04T21:41:28.250Z,1.17
2019-03-04T21:44:35.885Z,1.13
2019-03-04T21:47:11.456Z,1.70
2019-03-04T21:53:00.834Z,1.20
2019-03-04T21:56:09.704Z,1.30
2019-03-04T21:58:39.290Z,1.17
2019-03-04T22:04:32.321Z,1.60
2019-03-04T22:07:01.637Z,1.47
2019-03-04T22:09:30.951Z,1.20
2019-03-04T22:12:00.874Z,0.70
2019-03-04T22:14:30.447Z,1.57
2019-03-04T22:16:59.943Z,0.80
2019-03-04T22:19:29.166Z,0.97
2019-03-04T22:21:58.519Z,1.20
2019-03-04T22:24:27.728Z,1.00
2019-03-04T22:26:57.014Z,1.07
2019-03-04T22:29:26.231Z,0.87
2019-03-04T22:31:55.436Z,1.50
2019-03-04T22:34:24.904Z,0.93
2019-03-04T22:36:54.410Z,1.33
2019-03-04T22:39:24.015Z,1.57
2019-03-04T22:41:53.466Z,1.43
2019-03-04T22:44:22.670Z,1.30
2019-03-04T22:49:29.501Z,1.27
2019-03-04T22:52:02.472Z,1.03
2019-03-04T22:54:32.972Z,1.83
2019-03-04T22:57:03.336Z,1.00
2019-03-04T22:59:33.196Z,1.43
2019-03-04T23:02:05.773Z,1.60
2019-03-04T23:04:58.964Z,1.73
2019-03-04T23:10:54.009Z,1.87
2019-03-04T23:20:14.708Z,1.73
2019-03-04T23:22:47.180Z,1.70
2019-03-04T23:25:19.222Z,1.80
2019-03-04T23:28:10.820Z,1.27
2019-03-04T23:34:02.547Z,2.30
2019-03-04T23:36:32.176Z,1.90
2019-03-04T23:39:01.633Z,1.87
2019-03-04T23:41:30.861Z,1.80
2019-03-04T23:44:02.206Z,0.97
2019-03-04T23:46:57.222Z,1.13
2019-03-04T23:49:27.050Z,1.27
2019-03-04T23:51:59.466Z,1.70
2019-03-04T23:54:31.938Z,1.57
2019-03-04T23:57:01.177Z,1.73
2019-03-04T23:59:30.577Z,1.70
